Aviation Digital Data Service (ADDS)

Output produced by METARs form (1524 UTC 18 August 2019)
found at http://www.aviationweather.gov/metar/data/
 
METAR text: VABB 181500Z 23006KT 3000 HZ FEW020 SCT025 29/25 Q1008 NOSIG
Conditions at: VABB (BOMBAY/SANTACRUZ, IN) observed 1500 UTC 18 August 2019
Temperature: 29.0°C (84°F)
Dewpoint: 25.0°C (77°F) [RH = 79%]
Pressure (altimeter): 29.76 inches Hg (1008.0 mb)
Winds: from the SW (230 degrees) at 7 MPH (6 knots; 3.1 m/s)
Visibility: 1.86 miles (2.99 km)
Ceiling: at least 12,000 feet AGL
Clouds: few clouds at 2000 feet AGL
scattered clouds at 2500 feet AGL
Weather: HZ  (haze)

METAR text: VABB 181430Z 23004KT 3500 HZ FEW020 SCT025 29/25 Q1008 NOSIG
Conditions at: VABB (BOMBAY/SANTACRUZ, IN) observed 1430 UTC 18 August 2019
Temperature: 29.0°C (84°F)
Dewpoint: 25.0°C (77°F) [RH = 79%]
Pressure (altimeter): 29.76 inches Hg (1008.0 mb)
Winds: from the SW (230 degrees) at 5 MPH (4 knots; 2.1 m/s)
Visibility: 2.17 miles (3.49 km)
Ceiling: at least 12,000 feet AGL
Clouds: few clouds at 2000 feet AGL
scattered clouds at 2500 feet AGL
Weather: HZ  (haze)

METAR text: VABB 181400Z 25007KT 4000 HZ FEW020 SCT025 29/25 Q1007 NOSIG
Conditions at: VABB (BOMBAY/SANTACRUZ, IN) observed 1400 UTC 18 August 2019
Temperature: 29.0°C (84°F)
Dewpoint: 25.0°C (77°F) [RH = 79%]
Pressure (altimeter): 29.73 inches Hg (1007.0 mb)
Winds: from the WSW (250 degrees) at 8 MPH (7 knots; 3.6 m/s)
Visibility: 2.49 miles (4.01 km)
Ceiling: at least 12,000 feet AGL
Clouds: few clouds at 2000 feet AGL
scattered clouds at 2500 feet AGL
Weather: HZ  (haze)

METAR text: VABB 181330Z 26006KT 5000 HZ FEW020 SCT025 29/25 Q1007 BECMG 3000 HZ
Conditions at: VABB (BOMBAY/SANTACRUZ, IN) observed 1330 UTC 18 August 2019
Temperature: 29.0°C (84°F)
Dewpoint: 25.0°C (77°F) [RH = 79%]
Pressure (altimeter): 29.73 inches Hg (1007.0 mb)
Winds: from the W (260 degrees) at 7 MPH (6 knots; 3.1 m/s)
Visibility: 3 miles ( 5 km)
Ceiling: at least 12,000 feet AGL
Clouds: few clouds at 2000 feet AGL
scattered clouds at 2500 feet AGL
Weather: HZ  (haze)

METAR text: VABB 181300Z 26005KT 5000 HZ SCT020 SCT025 29/25 Q1007 NOSIG
Conditions at: VABB (BOMBAY/SANTACRUZ, IN) observed 1300 UTC 18 August 2019
Temperature: 29.0°C (84°F)
Dewpoint: 25.0°C (77°F) [RH = 79%]
Pressure (altimeter): 29.73 inches Hg (1007.0 mb)
Winds: from the W (260 degrees) at 6 MPH (5 knots; 2.6 m/s)
Visibility: 3 miles ( 5 km)
Ceiling: at least 12,000 feet AGL
Clouds: scattered clouds at 2000 feet AGL
scattered clouds at 2500 feet AGL
Weather: HZ  (haze)

METAR text: VABB 181230Z 25007KT 5000 HZ SCT020 SCT025 29/24 Q1007 NOSIG
Conditions at: VABB (BOMBAY/SANTACRUZ, IN) observed 1230 UTC 18 August 2019
Temperature: 29.0°C (84°F)
Dewpoint: 24.0°C (75°F) [RH = 74%]
Pressure (altimeter): 29.73 inches Hg (1007.0 mb)
Winds: from the WSW (250 degrees) at 8 MPH (7 knots; 3.6 m/s)
Visibility: 3 miles ( 5 km)
Ceiling: at least 12,000 feet AGL
Clouds: scattered clouds at 2000 feet AGL
scattered clouds at 2500 feet AGL
Weather: HZ  (haze)

METAR text: VABB 181200Z 27010KT 5000 HZ SCT020 SCT025 30/25 Q1007 NOSIG
Conditions at: VABB (BOMBAY/SANTACRUZ, IN) observed 1200 UTC 18 August 2019
Temperature: 30.0°C (86°F)
Dewpoint: 25.0°C (77°F) [RH = 75%]
Pressure (altimeter): 29.73 inches Hg (1007.0 mb)
Winds: from the W (270 degrees) at 12 MPH (10 knots; 5.1 m/s)
Visibility: 3 miles ( 5 km)
Ceiling: at least 12,000 feet AGL
Clouds: scattered clouds at 2000 feet AGL
scattered clouds at 2500 feet AGL
Weather: HZ  (haze)

METAR text: VABB 181130Z 25010KT 5000 HZ SCT018 SCT025 30/25 Q1007 NOSIG
Conditions at: VABB (BOMBAY/SANTACRUZ, IN) observed 1130 UTC 18 August 2019
Temperature: 30.0°C (86°F)
Dewpoint: 25.0°C (77°F) [RH = 75%]
Pressure (altimeter): 29.73 inches Hg (1007.0 mb)
Winds: from the WSW (250 degrees) at 12 MPH (10 knots; 5.1 m/s)
Visibility: 3 miles ( 5 km)
Ceiling: at least 12,000 feet AGL
Clouds: scattered clouds at 1800 feet AGL
scattered clouds at 2500 feet AGL
Weather: HZ  (haze)

METAR text: VABB 181100Z 24010KT 5000 HZ SCT018 SCT025 30/24 Q1007 NOSIG
Conditions at: VABB (BOMBAY/SANTACRUZ, IN) observed 1100 UTC 18 August 2019
Temperature: 30.0°C (86°F)
Dewpoint: 24.0°C (75°F) [RH = 70%]
Pressure (altimeter): 29.73 inches Hg (1007.0 mb)
Winds: from the WSW (240 degrees) at 12 MPH (10 knots; 5.1 m/s)
Visibility: 3 miles ( 5 km)
Ceiling: at least 12,000 feet AGL
Clouds: scattered clouds at 1800 feet AGL
scattered clouds at 2500 feet AGL
Weather: HZ  (haze)

METAR text: VABB 181030Z 25014KT 4000 HZ SCT018 SCT025 30/25 Q1007 BECMG 5000 HZ
Conditions at: VABB (BOMBAY/SANTACRUZ, IN) observed 1030 UTC 18 August 2019
Temperature: 30.0°C (86°F)
Dewpoint: 25.0°C (77°F) [RH = 75%]
Pressure (altimeter): 29.73 inches Hg (1007.0 mb)
Winds: from the WSW (250 degrees) at 16 MPH (14 knots; 7.2 m/s)
Visibility: 2.49 miles (4.01 km)
Ceiling: at least 12,000 feet AGL
Clouds: scattered clouds at 1800 feet AGL
scattered clouds at 2500 feet AGL
Weather: HZ  (haze)

METAR text: VABB 181000Z 27011KT 4000 HZ SCT018 SCT025 30/25 Q1007 NOSIG
Conditions at: VABB (BOMBAY/SANTACRUZ, IN) observed 1000 UTC 18 August 2019
Temperature: 30.0°C (86°F)
Dewpoint: 25.0°C (77°F) [RH = 75%]
Pressure (altimeter): 29.73 inches Hg (1007.0 mb)
Winds: from the W (270 degrees) at 13 MPH (11 knots; 5.7 m/s)
Visibility: 2.49 miles (4.01 km)
Ceiling: at least 12,000 feet AGL
Clouds: scattered clouds at 1800 feet AGL
scattered clouds at 2500 feet AGL
Weather: HZ  (haze)

METAR text: VABB 180930Z 26012KT 4000 HZ SCT018 SCT025 30/25 Q1007 NOSIG
Conditions at: VABB (BOMBAY/SANTACRUZ, IN) observed 0930 UTC 18 August 2019
Temperature: 30.0°C (86°F)
Dewpoint: 25.0°C (77°F) [RH = 75%]
Pressure (altimeter): 29.73 inches Hg (1007.0 mb)
Winds: from the W (260 degrees) at 14 MPH (12 knots; 6.2 m/s)
Visibility: 2.49 miles (4.01 km)
Ceiling: at least 12,000 feet AGL
Clouds: scattered clouds at 1800 feet AGL
scattered clouds at 2500 feet AGL
Weather: HZ  (haze)

METAR text: VABB 180900Z 26011KT 4000 HZ SCT018 SCT025 30/25 Q1008 NOSIG
Conditions at: VABB (BOMBAY/SANTACRUZ, IN) observed 0900 UTC 18 August 2019
Temperature: 30.0°C (86°F)
Dewpoint: 25.0°C (77°F) [RH = 75%]
Pressure (altimeter): 29.76 inches Hg (1008.0 mb)
Winds: from the W (260 degrees) at 13 MPH (11 knots; 5.7 m/s)
Visibility: 2.49 miles (4.01 km)
Ceiling: at least 12,000 feet AGL
Clouds: scattered clouds at 1800 feet AGL
scattered clouds at 2500 feet AGL
Weather: HZ  (haze)

METAR text: VABB 180830Z 25013KT 4000 HZ SCT020 SCT025 30/25 Q1008 NOSIG
Conditions at: VABB (BOMBAY/SANTACRUZ, IN) observed 0830 UTC 18 August 2019
Temperature: 30.0°C (86°F)
Dewpoint: 25.0°C (77°F) [RH = 75%]
Pressure (altimeter): 29.76 inches Hg (1008.0 mb)
Winds: from the WSW (250 degrees) at 15 MPH (13 knots; 6.7 m/s)
Visibility: 2.49 miles (4.01 km)
Ceiling: at least 12,000 feet AGL
Clouds: scattered clouds at 2000 feet AGL
scattered clouds at 2500 feet AGL
Weather: HZ  (haze)

METAR text: VABB 180800Z 27013KT 4000 HZ SCT020 SCT025 30/25 Q1008 NOSIG
Conditions at: VABB (BOMBAY/SANTACRUZ, IN) observed 0800 UTC 18 August 2019
Temperature: 30.0°C (86°F)
Dewpoint: 25.0°C (77°F) [RH = 75%]
Pressure (altimeter): 29.76 inches Hg (1008.0 mb)
Winds: from the W (270 degrees) at 15 MPH (13 knots; 6.7 m/s)
Visibility: 2.49 miles (4.01 km)
Ceiling: at least 12,000 feet AGL
Clouds: scattered clouds at 2000 feet AGL
scattered clouds at 2500 feet AGL
Weather: HZ  (haze)

METAR text: VABB 180730Z 26011KT 4000 HZ SCT020 SCT025 30/25 Q1008 NOSIG
Conditions at: VABB (BOMBAY/SANTACRUZ, IN) observed 0730 UTC 18 August 2019
Temperature: 30.0°C (86°F)
Dewpoint: 25.0°C (77°F) [RH = 75%]
Pressure (altimeter): 29.76 inches Hg (1008.0 mb)
Winds: from the W (260 degrees) at 13 MPH (11 knots; 5.7 m/s)
Visibility: 2.49 miles (4.01 km)
Ceiling: at least 12,000 feet AGL
Clouds: scattered clouds at 2000 feet AGL
scattered clouds at 2500 feet AGL
Weather: HZ  (haze)

METAR text: VABB 180700Z 26013KT 4000 HZ SCT020 SCT025 30/25 Q1008 NOSIG
Conditions at: VABB (BOMBAY/SANTACRUZ, IN) observed 0700 UTC 18 August 2019
Temperature: 30.0°C (86°F)
Dewpoint: 25.0°C (77°F) [RH = 75%]
Pressure (altimeter): 29.76 inches Hg (1008.0 mb)
Winds: from the W (260 degrees) at 15 MPH (13 knots; 6.7 m/s)
Visibility: 2.49 miles (4.01 km)
Ceiling: at least 12,000 feet AGL
Clouds: scattered clouds at 2000 feet AGL
scattered clouds at 2500 feet AGL
Weather: HZ  (haze)

METAR text: VABB 180630Z 26010KT 3500 HZ SCT020 SCT025 30/25 Q1009 BECMG 4000 HZ
Conditions at: VABB (BOMBAY/SANTACRUZ, IN) observed 0630 UTC 18 August 2019
Temperature: 30.0°C (86°F)
Dewpoint: 25.0°C (77°F) [RH = 75%]
Pressure (altimeter): 29.79 inches Hg (1009.0 mb)
Winds: from the W (260 degrees) at 12 MPH (10 knots; 5.1 m/s)
Visibility: 2.17 miles (3.49 km)
Ceiling: at least 12,000 feet AGL
Clouds: scattered clouds at 2000 feet AGL
scattered clouds at 2500 feet AGL
Weather: HZ  (haze)

METAR text: VABB 180600Z 25012KT 3500 HZ SCT020 SCT025 30/25 Q1009 NOSIG
Conditions at: VABB (BOMBAY/SANTACRUZ, IN) observed 0600 UTC 18 August 2019
Temperature: 30.0°C (86°F)
Dewpoint: 25.0°C (77°F) [RH = 75%]
Pressure (altimeter): 29.79 inches Hg (1009.0 mb)
Winds: from the WSW (250 degrees) at 14 MPH (12 knots; 6.2 m/s)
Visibility: 2.17 miles (3.49 km)
Ceiling: at least 12,000 feet AGL
Clouds: scattered clouds at 2000 feet AGL
scattered clouds at 2500 feet AGL
Weather: HZ  (haze)

METAR text: VABB 180530Z 24012KT 3000 HZ SCT020 SCT025 FEW025TCU 29/25 Q1009 NOSIG
Conditions at: VABB (BOMBAY/SANTACRUZ, IN) observed 0530 UTC 18 August 2019
Temperature: 29.0°C (84°F)
Dewpoint: 25.0°C (77°F) [RH = 79%]
Pressure (altimeter): 29.79 inches Hg (1009.0 mb)
Winds: from the WSW (240 degrees) at 14 MPH (12 knots; 6.2 m/s)
Visibility: 1.86 miles (2.99 km)
Ceiling: at least 12,000 feet AGL
Clouds: scattered clouds at 2000 feet AGL
scattered clouds at 2500 feet AGL
few clouds at 2500 feet AGL
Weather: HZ  (haze)

METAR text: VABB 180500Z 25011KT 3000 HZ SCT018 SCT025 FEW025TCU 29/25 Q1009 NOSIG
Conditions at: VABB (BOMBAY/SANTACRUZ, IN) observed 0500 UTC 18 August 2019
Temperature: 29.0°C (84°F)
Dewpoint: 25.0°C (77°F) [RH = 79%]
Pressure (altimeter): 29.79 inches Hg (1009.0 mb)
Winds: from the WSW (250 degrees) at 13 MPH (11 knots; 5.7 m/s)
Visibility: 1.86 miles (2.99 km)
Ceiling: at least 12,000 feet AGL
Clouds: scattered clouds at 1800 feet AGL
scattered clouds at 2500 feet AGL
few clouds at 2500 feet AGL
Weather: HZ  (haze)

METAR text: VABB 180430Z 25010KT 3000 HZ SCT020 SCT025 FEW025TCU 28/24 Q1009 NOSIG
Conditions at: VABB (BOMBAY/SANTACRUZ, IN) observed 0430 UTC 18 August 2019
Temperature: 28.0°C (82°F)
Dewpoint: 24.0°C (75°F) [RH = 79%]
Pressure (altimeter): 29.79 inches Hg (1009.0 mb)
Winds: from the WSW (250 degrees) at 12 MPH (10 knots; 5.1 m/s)
Visibility: 1.86 miles (2.99 km)
Ceiling: at least 12,000 feet AGL
Clouds: scattered clouds at 2000 feet AGL
scattered clouds at 2500 feet AGL
few clouds at 2500 feet AGL
Weather: HZ  (haze)

METAR text: VABB 180400Z 25009KT 3000 VCSH FEW010 SCT018 FEW025TCU 28/25 Q1008 NOSIG
Conditions at: VABB (BOMBAY/SANTACRUZ, IN) observed 0400 UTC 18 August 2019
Temperature: 28.0°C (82°F)
Dewpoint: 25.0°C (77°F) [RH = 84%]
Pressure (altimeter): 29.76 inches Hg (1008.0 mb)
Winds: from the WSW (250 degrees) at 10 MPH (9 knots; 4.6 m/s)
Visibility: 1.86 miles (2.99 km)
Ceiling: at least 12,000 feet AGL
Clouds: few clouds at 1000 feet AGL
scattered clouds at 1800 feet AGL
few clouds at 2500 feet AGL
Weather: VCSH  (showers in vicinity)

METAR text: VABB 180330Z 22010KT 3000 VCSH FEW010 SCT018 FEW025TCU 28/26 Q1008 TEMPO 1500 SHRA
Conditions at: VABB (BOMBAY/SANTACRUZ, IN) observed 0330 UTC 18 August 2019
Temperature: 28.0°C (82°F)
Dewpoint: 26.0°C (79°F) [RH = 89%]
Pressure (altimeter): 29.76 inches Hg (1008.0 mb)
Winds: from the SW (220 degrees) at 12 MPH (10 knots; 5.1 m/s)
Visibility: 1.86 miles (2.99 km)
Ceiling: at least 12,000 feet AGL
Clouds: few clouds at 1000 feet AGL
scattered clouds at 1800 feet AGL
few clouds at 2500 feet AGL
Weather: VCSH  (showers in vicinity)

METAR text: VABB 180300Z 23006KT 3000 HZ SCT018 SCT025 28/26 Q1008 NOSIG
Conditions at: VABB (BOMBAY/SANTACRUZ, IN) observed 0300 UTC 18 August 2019
Temperature: 28.0°C (82°F)
Dewpoint: 26.0°C (79°F) [RH = 89%]
Pressure (altimeter): 29.76 inches Hg (1008.0 mb)
Winds: from the SW (230 degrees) at 7 MPH (6 knots; 3.1 m/s)
Visibility: 1.86 miles (2.99 km)
Ceiling: at least 12,000 feet AGL
Clouds: scattered clouds at 1800 feet AGL
scattered clouds at 2500 feet AGL
Weather: HZ  (haze)

METAR text: VABB 180230Z 21005KT 3000 HZ SCT018 SCT025 27/25 Q1008 NOSIG
Conditions at: VABB (BOMBAY/SANTACRUZ, IN) observed 0230 UTC 18 August 2019
Temperature: 27.0°C (81°F)
Dewpoint: 25.0°C (77°F) [RH = 89%]
Pressure (altimeter): 29.76 inches Hg (1008.0 mb)
Winds: from the SSW (210 degrees) at 6 MPH (5 knots; 2.6 m/s)
Visibility: 1.86 miles (2.99 km)
Ceiling: at least 12,000 feet AGL
Clouds: scattered clouds at 1800 feet AGL
scattered clouds at 2500 feet AGL
Weather: HZ  (haze)

METAR text: VABB 180200Z 23005KT 3000 HZ SCT020 SCT100 27/25 Q1007 NOSIG
Conditions at: VABB (BOMBAY/SANTACRUZ, IN) observed 0200 UTC 18 August 2019
Temperature: 27.0°C (81°F)
Dewpoint: 25.0°C (77°F) [RH = 89%]
Pressure (altimeter): 29.73 inches Hg (1007.0 mb)
Winds: from the SW (230 degrees) at 6 MPH (5 knots; 2.6 m/s)
Visibility: 1.86 miles (2.99 km)
Ceiling: at least 12,000 feet AGL
Clouds: scattered clouds at 2000 feet AGL
scattered clouds at 10000 feet AGL
Weather: HZ  (haze)

METAR text: VABB 180130Z 23006KT 3000 HZ SCT018 BKN090 26/25 Q1007 NOSIG
Conditions at: VABB (BOMBAY/SANTACRUZ, IN) observed 0130 UTC 18 August 2019
Temperature: 26.0°C (79°F)
Dewpoint: 25.0°C (77°F) [RH = 94%]
Pressure (altimeter): 29.73 inches Hg (1007.0 mb)
Winds: from the SW (230 degrees) at 7 MPH (6 knots; 3.1 m/s)
Visibility: 1.86 miles (2.99 km)
Ceiling: 9000 feet AGL
Clouds: scattered clouds at 1800 feet AGL
broken clouds at 9000 feet AGL
Weather: HZ  (haze)

METAR text: VABB 180100Z 23008KT 3000 HZ SCT018 BKN090 26/24 Q1007 NOSIG
Conditions at: VABB (BOMBAY/SANTACRUZ, IN) observed 0100 UTC 18 August 2019
Temperature: 26.0°C (79°F)
Dewpoint: 24.0°C (75°F) [RH = 89%]
Pressure (altimeter): 29.73 inches Hg (1007.0 mb)
Winds: from the SW (230 degrees) at 9 MPH (8 knots; 4.1 m/s)
Visibility: 1.86 miles (2.99 km)
Ceiling: 9000 feet AGL
Clouds: scattered clouds at 1800 feet AGL
broken clouds at 9000 feet AGL
Weather: HZ  (haze)

METAR text: VABB 180030Z 24010KT 3500 HZ FEW012 SCT018 BKN090 27/24 Q1007 BECMG 3000 HZ
Conditions at: VABB (BOMBAY/SANTACRUZ, IN) observed 0030 UTC 18 August 2019
Temperature: 27.0°C (81°F)
Dewpoint: 24.0°C (75°F) [RH = 84%]
Pressure (altimeter): 29.73 inches Hg (1007.0 mb)
Winds: from the WSW (240 degrees) at 12 MPH (10 knots; 5.1 m/s)
Visibility: 2.17 miles (3.49 km)
Ceiling: 9000 feet AGL
Clouds: few clouds at 1200 feet AGL
scattered clouds at 1800 feet AGL
broken clouds at 9000 feet AGL
Weather: HZ  (haze)

METAR text: VABB 180000Z 24011KT 4000 -RA FEW012 SCT018 BKN090 27/24 Q1007 NOSIG
Conditions at: VABB (BOMBAY/SANTACRUZ, IN) observed 0000 UTC 18 August 2019
Temperature: 27.0°C (81°F)
Dewpoint: 24.0°C (75°F) [RH = 84%]
Pressure (altimeter): 29.73 inches Hg (1007.0 mb)
Winds: from the WSW (240 degrees) at 13 MPH (11 knots; 5.7 m/s)
Visibility: 2.49 miles (4.01 km)
Ceiling: 9000 feet AGL
Clouds: few clouds at 1200 feet AGL
scattered clouds at 1800 feet AGL
broken clouds at 9000 feet AGL
Weather: -RA  (light rain)

METAR text: VABB 172330Z 19004KT 4000 HZ SCT018 BKN090 28/24 Q1006 NOSIG
Conditions at: VABB (BOMBAY/SANTACRUZ, IN) observed 2330 UTC 17 August 2019
Temperature: 28.0°C (82°F)
Dewpoint: 24.0°C (75°F) [RH = 79%]
Pressure (altimeter): 29.70 inches Hg (1006.0 mb)
Winds: from the S (190 degrees) at 5 MPH (4 knots; 2.1 m/s)
Visibility: 2.49 miles (4.01 km)
Ceiling: 9000 feet AGL
Clouds: scattered clouds at 1800 feet AGL
broken clouds at 9000 feet AGL
Weather: HZ  (haze)

METAR text: VABB 172300Z 21004KT 4000 HZ SCT018 BKN090 28/25 Q1006 NOSIG
Conditions at: VABB (BOMBAY/SANTACRUZ, IN) observed 2300 UTC 17 August 2019
Temperature: 28.0°C (82°F)
Dewpoint: 25.0°C (77°F) [RH = 84%]
Pressure (altimeter): 29.70 inches Hg (1006.0 mb)
Winds: from the SSW (210 degrees) at 5 MPH (4 knots; 2.1 m/s)
Visibility: 2.49 miles (4.01 km)
Ceiling: 9000 feet AGL
Clouds: scattered clouds at 1800 feet AGL
broken clouds at 9000 feet AGL
Weather: HZ  (haze)

METAR text: VABB 172230Z 00000KT 3500 HZ SCT018 BKN090 27/25 Q1007 BECMG 4000 HZ
Conditions at: VABB (BOMBAY/SANTACRUZ, IN) observed 2230 UTC 17 August 2019
Temperature: 27.0°C (81°F)
Dewpoint: 25.0°C (77°F) [RH = 89%]
Pressure (altimeter): 29.73 inches Hg (1007.0 mb)
Winds: calm
Visibility: 2.17 miles (3.49 km)
Ceiling: 9000 feet AGL
Clouds: scattered clouds at 1800 feet AGL
broken clouds at 9000 feet AGL
Weather: HZ  (haze)

METAR text: VABB 172200Z 19003KT 3500 HZ SCT018 BKN090 27/25 Q1007 NOSIG
Conditions at: VABB (BOMBAY/SANTACRUZ, IN) observed 2200 UTC 17 August 2019
Temperature: 27.0°C (81°F)
Dewpoint: 25.0°C (77°F) [RH = 89%]
Pressure (altimeter): 29.73 inches Hg (1007.0 mb)
Winds: from the S (190 degrees) at 3 MPH (3 knots; 1.5 m/s)
Visibility: 2.17 miles (3.49 km)
Ceiling: 9000 feet AGL
Clouds: scattered clouds at 1800 feet AGL
broken clouds at 9000 feet AGL
Weather: HZ  (haze)

METAR text: VABB 172130Z 22004KT 3000 HZ SCT018 BKN090 27/25 Q1007 NOSIG
Conditions at: VABB (BOMBAY/SANTACRUZ, IN) observed 2130 UTC 17 August 2019
Temperature: 27.0°C (81°F)
Dewpoint: 25.0°C (77°F) [RH = 89%]
Pressure (altimeter): 29.73 inches Hg (1007.0 mb)
Winds: from the SW (220 degrees) at 5 MPH (4 knots; 2.1 m/s)
Visibility: 1.86 miles (2.99 km)
Ceiling: 9000 feet AGL
Clouds: scattered clouds at 1800 feet AGL
broken clouds at 9000 feet AGL
Weather: HZ  (haze)

METAR text: VABB 172100Z 20007KT 3000 HZ SCT018 BKN090 27/25 Q1007 NOSIG
Conditions at: VABB (BOMBAY/SANTACRUZ, IN) observed 2100 UTC 17 August 2019
Temperature: 27.0°C (81°F)
Dewpoint: 25.0°C (77°F) [RH = 89%]
Pressure (altimeter): 29.73 inches Hg (1007.0 mb)
Winds: from the SSW (200 degrees) at 8 MPH (7 knots; 3.6 m/s)
Visibility: 1.86 miles (2.99 km)
Ceiling: 9000 feet AGL
Clouds: scattered clouds at 1800 feet AGL
broken clouds at 9000 feet AGL
Weather: HZ  (haze)

METAR text: VABB 172030Z 00000KT 2500 HZ FEW012 SCT018 BKN090 27/25 Q1007 TEMPO 1500 SHRA
Conditions at: VABB (BOMBAY/SANTACRUZ, IN) observed 2030 UTC 17 August 2019
Temperature: 27.0°C (81°F)
Dewpoint: 25.0°C (77°F) [RH = 89%]
Pressure (altimeter): 29.73 inches Hg (1007.0 mb)
Winds: calm
Visibility: 1.55 miles (2.49 km)
Ceiling: 9000 feet AGL
Clouds: few clouds at 1200 feet AGL
scattered clouds at 1800 feet AGL
broken clouds at 9000 feet AGL
Weather: HZ  (haze)

METAR text: VABB 172000Z 23006KT 2100 -RA SCT010 SCT015 OVC090 27/24 Q1007 TEMPO 0800 +SHRA
Conditions at: VABB (BOMBAY/SANTACRUZ, IN) observed 2000 UTC 17 August 2019
Temperature: 27.0°C (81°F)
Dewpoint: 24.0°C (75°F) [RH = 84%]
Pressure (altimeter): 29.73 inches Hg (1007.0 mb)
Winds: from the SW (230 degrees) at 7 MPH (6 knots; 3.1 m/s)
Visibility: 1.30 miles (2.09 km)
Ceiling: 9000 feet AGL
Clouds: scattered clouds at 1000 feet AGL
scattered clouds at 1500 feet AGL
overcast cloud deck at 9000 feet AGL
Weather: -RA  (light rain)

METAR text: VABB 171930Z 20007KT 4000 HZ SCT018 SCT100 28/25 Q1007 NOSIG
Conditions at: VABB (BOMBAY/SANTACRUZ, IN) observed 1930 UTC 17 August 2019
Temperature: 28.0°C (82°F)
Dewpoint: 25.0°C (77°F) [RH = 84%]
Pressure (altimeter): 29.73 inches Hg (1007.0 mb)
Winds: from the SSW (200 degrees) at 8 MPH (7 knots; 3.6 m/s)
Visibility: 2.49 miles (4.01 km)
Ceiling: at least 12,000 feet AGL
Clouds: scattered clouds at 1800 feet AGL
scattered clouds at 10000 feet AGL
Weather: HZ  (haze)

METAR text: VABB 171900Z 20007KT 4000 HZ SCT020 SCT100 28/25 Q1007 NOSIG
Conditions at: VABB (BOMBAY/SANTACRUZ, IN) observed 1900 UTC 17 August 2019
Temperature: 28.0°C (82°F)
Dewpoint: 25.0°C (77°F) [RH = 84%]
Pressure (altimeter): 29.73 inches Hg (1007.0 mb)
Winds: from the SSW (200 degrees) at 8 MPH (7 knots; 3.6 m/s)
Visibility: 2.49 miles (4.01 km)
Ceiling: at least 12,000 feet AGL
Clouds: scattered clouds at 2000 feet AGL
scattered clouds at 10000 feet AGL
Weather: HZ  (haze)

METAR text: VABB 171830Z 21006KT 4000 HZ SCT020 28/25 Q1008 NOSIG
Conditions at: VABB (BOMBAY/SANTACRUZ, IN) observed 1830 UTC 17 August 2019
Temperature: 28.0°C (82°F)
Dewpoint: 25.0°C (77°F) [RH = 84%]
Pressure (altimeter): 29.76 inches Hg (1008.0 mb)
Winds: from the SSW (210 degrees) at 7 MPH (6 knots; 3.1 m/s)
Visibility: 2.49 miles (4.01 km)
Ceiling: at least 12,000 feet AGL
Clouds: scattered clouds at 2000 feet AGL
Weather: HZ  (haze)

METAR text: VABB 171800Z 20006KT 4000 HZ SCT020 28/25 Q1008 NOSIG
Conditions at: VABB (BOMBAY/SANTACRUZ, IN) observed 1800 UTC 17 August 2019
Temperature: 28.0°C (82°F)
Dewpoint: 25.0°C (77°F) [RH = 84%]
Pressure (altimeter): 29.76 inches Hg (1008.0 mb)
Winds: from the SSW (200 degrees) at 7 MPH (6 knots; 3.1 m/s)
Visibility: 2.49 miles (4.01 km)
Ceiling: at least 12,000 feet AGL
Clouds: scattered clouds at 2000 feet AGL
Weather: HZ  (haze)

METAR text: VABB 171730Z 21009KT 4000 HZ SCT020 29/25 Q1007 NOSIG
Conditions at: VABB (BOMBAY/SANTACRUZ, IN) observed 1730 UTC 17 August 2019
Temperature: 29.0°C (84°F)
Dewpoint: 25.0°C (77°F) [RH = 79%]
Pressure (altimeter): 29.73 inches Hg (1007.0 mb)
Winds: from the SSW (210 degrees) at 10 MPH (9 knots; 4.6 m/s)
Visibility: 2.49 miles (4.01 km)
Ceiling: at least 12,000 feet AGL
Clouds: scattered clouds at 2000 feet AGL
Weather: HZ  (haze)

METAR text: VABB 171700Z 21008KT 4000 HZ SCT020 28/25 Q1007 NOSIG
Conditions at: VABB (BOMBAY/SANTACRUZ, IN) observed 1700 UTC 17 August 2019
Temperature: 28.0°C (82°F)
Dewpoint: 25.0°C (77°F) [RH = 84%]
Pressure (altimeter): 29.73 inches Hg (1007.0 mb)
Winds: from the SSW (210 degrees) at 9 MPH (8 knots; 4.1 m/s)
Visibility: 2.49 miles (4.01 km)
Ceiling: at least 12,000 feet AGL
Clouds: scattered clouds at 2000 feet AGL
Weather: HZ  (haze)

METAR text: VABB 171630Z 22007KT 4000 HZ SCT020 28/25 Q1007 NOSIG
Conditions at: VABB (BOMBAY/SANTACRUZ, IN) observed 1630 UTC 17 August 2019
Temperature: 28.0°C (82°F)
Dewpoint: 25.0°C (77°F) [RH = 84%]
Pressure (altimeter): 29.73 inches Hg (1007.0 mb)
Winds: from the SW (220 degrees) at 8 MPH (7 knots; 3.6 m/s)
Visibility: 2.49 miles (4.01 km)
Ceiling: at least 12,000 feet AGL
Clouds: scattered clouds at 2000 feet AGL
Weather: HZ  (haze)

METAR text: VABB 171600Z 21007KT 4000 HZ SCT020 28/24 Q1007 NOSIG
Conditions at: VABB (BOMBAY/SANTACRUZ, IN) observed 1600 UTC 17 August 2019
Temperature: 28.0°C (82°F)
Dewpoint: 24.0°C (75°F) [RH = 79%]
Pressure (altimeter): 29.73 inches Hg (1007.0 mb)
Winds: from the SSW (210 degrees) at 8 MPH (7 knots; 3.6 m/s)
Visibility: 2.49 miles (4.01 km)
Ceiling: at least 12,000 feet AGL
Clouds: scattered clouds at 2000 feet AGL
Weather: HZ  (haze)

METAR text: VABB 171530Z 21008KT 4000 HZ FEW020 SCT025 28/24 Q1007 NOSIG
Conditions at: VABB (BOMBAY/SANTACRUZ, IN) observed 1530 UTC 17 August 2019
Temperature: 28.0°C (82°F)
Dewpoint: 24.0°C (75°F) [RH = 79%]
Pressure (altimeter): 29.73 inches Hg (1007.0 mb)
Winds: from the SSW (210 degrees) at 9 MPH (8 knots; 4.1 m/s)
Visibility: 2.49 miles (4.01 km)
Ceiling: at least 12,000 feet AGL
Clouds: few clouds at 2000 feet AGL
scattered clouds at 2500 feet AGL
Weather: HZ  (haze)

METAR text: VABB 171500Z 23007KT 5000 FU FEW018 SCT025 FEW025TCU 28/25 Q1006 NOSIG
Conditions at: VABB (BOMBAY/SANTACRUZ, IN) observed 1500 UTC 17 August 2019
Temperature: 28.0°C (82°F)
Dewpoint: 25.0°C (77°F) [RH = 84%]
Pressure (altimeter): 29.70 inches Hg (1006.0 mb)
Winds: from the SW (230 degrees) at 8 MPH (7 knots; 3.6 m/s)
Visibility: 3 miles ( 5 km)
Ceiling: at least 12,000 feet AGL
Clouds: few clouds at 1800 feet AGL
scattered clouds at 2500 feet AGL
few clouds at 2500 feet AGL
Weather: FU  (smoke)

METAR text: VABB 171430Z 23010KT 5000 FU FEW018 SCT025 FEW025TCU 28/25 Q1006 NOSIG
Conditions at: VABB (BOMBAY/SANTACRUZ, IN) observed 1430 UTC 17 August 2019
Temperature: 28.0°C (82°F)
Dewpoint: 25.0°C (77°F) [RH = 84%]
Pressure (altimeter): 29.70 inches Hg (1006.0 mb)
Winds: from the SW (230 degrees) at 12 MPH (10 knots; 5.1 m/s)
Visibility: 3 miles ( 5 km)
Ceiling: at least 12,000 feet AGL
Clouds: few clouds at 1800 feet AGL
scattered clouds at 2500 feet AGL
few clouds at 2500 feet AGL
Weather: FU  (smoke)

METAR text: VABB 171400Z 24010KT 4000 FU SCT018 SCT025 FEW025TCU 29/25 Q1006 BECMG 5000 FU
Conditions at: VABB (BOMBAY/SANTACRUZ, IN) observed 1400 UTC 17 August 2019
Temperature: 29.0°C (84°F)
Dewpoint: 25.0°C (77°F) [RH = 79%]
Pressure (altimeter): 29.70 inches Hg (1006.0 mb)
Winds: from the WSW (240 degrees) at 12 MPH (10 knots; 5.1 m/s)
Visibility: 2.49 miles (4.01 km)
Ceiling: at least 12,000 feet AGL
Clouds: scattered clouds at 1800 feet AGL
scattered clouds at 2500 feet AGL
few clouds at 2500 feet AGL
Weather: FU  (smoke)

METAR text: VABB 171330Z 21011KT 4000 FU SCT018 SCT025 FEW025TCU 29/25 Q1006 NOSIG
Conditions at: VABB (BOMBAY/SANTACRUZ, IN) observed 1330 UTC 17 August 2019
Temperature: 29.0°C (84°F)
Dewpoint: 25.0°C (77°F) [RH = 79%]
Pressure (altimeter): 29.70 inches Hg (1006.0 mb)
Winds: from the SSW (210 degrees) at 13 MPH (11 knots; 5.7 m/s)
Visibility: 2.49 miles (4.01 km)
Ceiling: at least 12,000 feet AGL
Clouds: scattered clouds at 1800 feet AGL
scattered clouds at 2500 feet AGL
few clouds at 2500 feet AGL
Weather: FU  (smoke)

METAR text: VABB 171300Z 22011KT 4000 FU SCT018 SCT025 FEW025TCU 29/25 Q1005 NOSIG
Conditions at: VABB (BOMBAY/SANTACRUZ, IN) observed 1300 UTC 17 August 2019
Temperature: 29.0°C (84°F)
Dewpoint: 25.0°C (77°F) [RH = 79%]
Pressure (altimeter): 29.68 inches Hg (1005.0 mb)
Winds: from the SW (220 degrees) at 13 MPH (11 knots; 5.7 m/s)
Visibility: 2.49 miles (4.01 km)
Ceiling: at least 12,000 feet AGL
Clouds: scattered clouds at 1800 feet AGL
scattered clouds at 2500 feet AGL
few clouds at 2500 feet AGL
Weather: FU  (smoke)

METAR text: VABB 171230Z 24009KT 4500 FU SCT018 SCT025 FEW025TCU 29/25 Q1005 NOSIG
Conditions at: VABB (BOMBAY/SANTACRUZ, IN) observed 1230 UTC 17 August 2019
Temperature: 29.0°C (84°F)
Dewpoint: 25.0°C (77°F) [RH = 79%]
Pressure (altimeter): 29.68 inches Hg (1005.0 mb)
Winds: from the WSW (240 degrees) at 10 MPH (9 knots; 4.6 m/s)
Visibility: 2.80 miles (4.51 km)
Ceiling: at least 12,000 feet AGL
Clouds: scattered clouds at 1800 feet AGL
scattered clouds at 2500 feet AGL
few clouds at 2500 feet AGL
Weather: FU  (smoke)

METAR text: VABB 171200Z 23011KT 5000 FU SCT018 SCT025 FEW025TCU 29/25 Q1005 NOSIG
Conditions at: VABB (BOMBAY/SANTACRUZ, IN) observed 1200 UTC 17 August 2019
Temperature: 29.0°C (84°F)
Dewpoint: 25.0°C (77°F) [RH = 79%]
Pressure (altimeter): 29.68 inches Hg (1005.0 mb)
Winds: from the SW (230 degrees) at 13 MPH (11 knots; 5.7 m/s)
Visibility: 3 miles ( 5 km)
Ceiling: at least 12,000 feet AGL
Clouds: scattered clouds at 1800 feet AGL
scattered clouds at 2500 feet AGL
few clouds at 2500 feet AGL
Weather: FU  (smoke)

METAR text: VABB 171130Z 23012KT 4000 FU SCT018 SCT025 FEW025TCU 29/25 Q1005 BECMG 5000 FU
Conditions at: VABB (BOMBAY/SANTACRUZ, IN) observed 1130 UTC 17 August 2019
Temperature: 29.0°C (84°F)
Dewpoint: 25.0°C (77°F) [RH = 79%]
Pressure (altimeter): 29.68 inches Hg (1005.0 mb)
Winds: from the SW (230 degrees) at 14 MPH (12 knots; 6.2 m/s)
Visibility: 2.49 miles (4.01 km)
Ceiling: at least 12,000 feet AGL
Clouds: scattered clouds at 1800 feet AGL
scattered clouds at 2500 feet AGL
few clouds at 2500 feet AGL
Weather: FU  (smoke)

METAR text: VABB 171100Z 23012KT 4000 FU SCT018 SCT025 FEW025TCU 30/25 Q1005 NOSIG
Conditions at: VABB (BOMBAY/SANTACRUZ, IN) observed 1100 UTC 17 August 2019
Temperature: 30.0°C (86°F)
Dewpoint: 25.0°C (77°F) [RH = 75%]
Pressure (altimeter): 29.68 inches Hg (1005.0 mb)
Winds: from the SW (230 degrees) at 14 MPH (12 knots; 6.2 m/s)
Visibility: 2.49 miles (4.01 km)
Ceiling: at least 12,000 feet AGL
Clouds: scattered clouds at 1800 feet AGL
scattered clouds at 2500 feet AGL
few clouds at 2500 feet AGL
Weather: FU  (smoke)

METAR text: VABB 171030Z 22013KT 4000 FU SCT018 SCT025 FEW025TCU BKN080 30/25 Q1005 NOSIG
Conditions at: VABB (BOMBAY/SANTACRUZ, IN) observed 1030 UTC 17 August 2019
Temperature: 30.0°C (86°F)
Dewpoint: 25.0°C (77°F) [RH = 75%]
Pressure (altimeter): 29.68 inches Hg (1005.0 mb)
Winds: from the SW (220 degrees) at 15 MPH (13 knots; 6.7 m/s)
Visibility: 2.49 miles (4.01 km)
Ceiling: 8000 feet AGL
Clouds: scattered clouds at 1800 feet AGL
scattered clouds at 2500 feet AGL
few clouds at 2500 feet AGL
broken clouds at 8000 feet AGL
Weather: FU  (smoke)

METAR text: VABB 171000Z 21009G19KT 4000 HZ SCT020 SCT025 BKN100 30/25 Q1005 NOSIG
Conditions at: VABB (BOMBAY/SANTACRUZ, IN) observed 1000 UTC 17 August 2019
Temperature: 30.0°C (86°F)
Dewpoint: 25.0°C (77°F) [RH = 75%]
Pressure (altimeter): 29.68 inches Hg (1005.0 mb)
Winds: from the SSW (210 degrees) at 10 MPH (9 knots; 4.6 m/s)
gusting to 22 MPH (19 knots; 9.8 m/s)
Visibility: 2.49 miles (4.01 km)
Ceiling: 10000 feet AGL
Clouds: scattered clouds at 2000 feet AGL
scattered clouds at 2500 feet AGL
broken clouds at 10000 feet AGL
Weather: HZ  (haze)

METAR text: VABB 170930Z 23008G18KT 4000 HZ SCT020 SCT025 30/24 Q1006 NOSIG
Conditions at: VABB (BOMBAY/SANTACRUZ, IN) observed 0930 UTC 17 August 2019
Temperature: 30.0°C (86°F)
Dewpoint: 24.0°C (75°F) [RH = 70%]
Pressure (altimeter): 29.70 inches Hg (1006.0 mb)
Winds: from the SW (230 degrees) at 9 MPH (8 knots; 4.1 m/s)
gusting to 21 MPH (18 knots; 9.3 m/s)
Visibility: 2.49 miles (4.01 km)
Ceiling: at least 12,000 feet AGL
Clouds: scattered clouds at 2000 feet AGL
scattered clouds at 2500 feet AGL
Weather: HZ  (haze)

METAR text: VABB 170900Z 22010G20KT 4000 HZ SCT020 SCT025 30/25 Q1006 NOSIG
Conditions at: VABB (BOMBAY/SANTACRUZ, IN) observed 0900 UTC 17 August 2019
Temperature: 30.0°C (86°F)
Dewpoint: 25.0°C (77°F) [RH = 75%]
Pressure (altimeter): 29.70 inches Hg (1006.0 mb)
Winds: from the SW (220 degrees) at 12 MPH (10 knots; 5.1 m/s)
gusting to 23 MPH (20 knots; 10.3 m/s)
Visibility: 2.49 miles (4.01 km)
Ceiling: at least 12,000 feet AGL
Clouds: scattered clouds at 2000 feet AGL
scattered clouds at 2500 feet AGL
Weather: HZ  (haze)

METAR text: VABB 170830Z 22012KT 4000 HZ SCT020 SCT025 BKN100 30/26 Q1006 NOSIG
Conditions at: VABB (BOMBAY/SANTACRUZ, IN) observed 0830 UTC 17 August 2019
Temperature: 30.0°C (86°F)
Dewpoint: 26.0°C (79°F) [RH = 79%]
Pressure (altimeter): 29.70 inches Hg (1006.0 mb)
Winds: from the SW (220 degrees) at 14 MPH (12 knots; 6.2 m/s)
Visibility: 2.49 miles (4.01 km)
Ceiling: 10000 feet AGL
Clouds: scattered clouds at 2000 feet AGL
scattered clouds at 2500 feet AGL
broken clouds at 10000 feet AGL
Weather: HZ  (haze)

METAR text: VABB 170800Z 22013G23KT 4000 HZ SCT020 SCT025 BKN100 30/25 Q1006 NOSIG
Conditions at: VABB (BOMBAY/SANTACRUZ, IN) observed 0800 UTC 17 August 2019
Temperature: 30.0°C (86°F)
Dewpoint: 25.0°C (77°F) [RH = 75%]
Pressure (altimeter): 29.70 inches Hg (1006.0 mb)
Winds: from the SW (220 degrees) at 15 MPH (13 knots; 6.7 m/s)
gusting to 26 MPH (23 knots; 11.8 m/s)
Visibility: 2.49 miles (4.01 km)
Ceiling: 10000 feet AGL
Clouds: scattered clouds at 2000 feet AGL
scattered clouds at 2500 feet AGL
broken clouds at 10000 feet AGL
Weather: HZ  (haze)

METAR text: VABB 170730Z 20014KT 4000 HZ SCT020 SCT025 BKN100 30/25 Q1007 NOSIG
Conditions at: VABB (BOMBAY/SANTACRUZ, IN) observed 0730 UTC 17 August 2019
Temperature: 30.0°C (86°F)
Dewpoint: 25.0°C (77°F) [RH = 75%]
Pressure (altimeter): 29.73 inches Hg (1007.0 mb)
Winds: from the SSW (200 degrees) at 16 MPH (14 knots; 7.2 m/s)
Visibility: 2.49 miles (4.01 km)
Ceiling: 10000 feet AGL
Clouds: scattered clouds at 2000 feet AGL
scattered clouds at 2500 feet AGL
broken clouds at 10000 feet AGL
Weather: HZ  (haze)

METAR text: VABB 170700Z 22014KT 3500 HZ SCT020 SCT025 30/26 Q1007 NOSIG
Conditions at: VABB (BOMBAY/SANTACRUZ, IN) observed 0700 UTC 17 August 2019
Temperature: 30.0°C (86°F)
Dewpoint: 26.0°C (79°F) [RH = 79%]
Pressure (altimeter): 29.73 inches Hg (1007.0 mb)
Winds: from the SW (220 degrees) at 16 MPH (14 knots; 7.2 m/s)
Visibility: 2.17 miles (3.49 km)
Ceiling: at least 12,000 feet AGL
Clouds: scattered clouds at 2000 feet AGL
scattered clouds at 2500 feet AGL
Weather: HZ  (haze)

METAR text: VABB 170630Z 22015KT 3000 HZ SCT020 SCT025 30/25 Q1007 NOSIG
Conditions at: VABB (BOMBAY/SANTACRUZ, IN) observed 0630 UTC 17 August 2019
Temperature: 30.0°C (86°F)
Dewpoint: 25.0°C (77°F) [RH = 75%]
Pressure (altimeter): 29.73 inches Hg (1007.0 mb)
Winds: from the SW (220 degrees) at 17 MPH (15 knots; 7.7 m/s)
Visibility: 1.86 miles (2.99 km)
Ceiling: at least 12,000 feet AGL
Clouds: scattered clouds at 2000 feet AGL
scattered clouds at 2500 feet AGL
Weather: HZ  (haze)

METAR text: VABB 170600Z 21013KT 3000 HZ SCT020 SCT025 30/25 Q1007 NOSIG
Conditions at: VABB (BOMBAY/SANTACRUZ, IN) observed 0600 UTC 17 August 2019
Temperature: 30.0°C (86°F)
Dewpoint: 25.0°C (77°F) [RH = 75%]
Pressure (altimeter): 29.73 inches Hg (1007.0 mb)
Winds: from the SSW (210 degrees) at 15 MPH (13 knots; 6.7 m/s)
Visibility: 1.86 miles (2.99 km)
Ceiling: at least 12,000 feet AGL
Clouds: scattered clouds at 2000 feet AGL
scattered clouds at 2500 feet AGL
Weather: HZ  (haze)

METAR text: VABB 170530Z 22015KT 3000 HZ SCT020 SCT025 30/25 Q1007 NOSIG
Conditions at: VABB (BOMBAY/SANTACRUZ, IN) observed 0530 UTC 17 August 2019
Temperature: 30.0°C (86°F)
Dewpoint: 25.0°C (77°F) [RH = 75%]
Pressure (altimeter): 29.73 inches Hg (1007.0 mb)
Winds: from the SW (220 degrees) at 17 MPH (15 knots; 7.7 m/s)
Visibility: 1.86 miles (2.99 km)
Ceiling: at least 12,000 feet AGL
Clouds: scattered clouds at 2000 feet AGL
scattered clouds at 2500 feet AGL
Weather: HZ  (haze)

METAR text: VABB 170500Z 21012KT 3000 HZ SCT018 SCT025 29/25 Q1007 NOSIG
Conditions at: VABB (BOMBAY/SANTACRUZ, IN) observed 0500 UTC 17 August 2019
Temperature: 29.0°C (84°F)
Dewpoint: 25.0°C (77°F) [RH = 79%]
Pressure (altimeter): 29.73 inches Hg (1007.0 mb)
Winds: from the SSW (210 degrees) at 14 MPH (12 knots; 6.2 m/s)
Visibility: 1.86 miles (2.99 km)
Ceiling: at least 12,000 feet AGL
Clouds: scattered clouds at 1800 feet AGL
scattered clouds at 2500 feet AGL
Weather: HZ  (haze)

METAR text: VABB 170430Z 23013KT 3000 HZ SCT018 SCT025 29/25 Q1007 NOSIG
Conditions at: VABB (BOMBAY/SANTACRUZ, IN) observed 0430 UTC 17 August 2019
Temperature: 29.0°C (84°F)
Dewpoint: 25.0°C (77°F) [RH = 79%]
Pressure (altimeter): 29.73 inches Hg (1007.0 mb)
Winds: from the SW (230 degrees) at 15 MPH (13 knots; 6.7 m/s)
Visibility: 1.86 miles (2.99 km)
Ceiling: at least 12,000 feet AGL
Clouds: scattered clouds at 1800 feet AGL
scattered clouds at 2500 feet AGL
Weather: HZ  (haze)

METAR text: VABB 170400Z 23010KT 3000 HZ SCT018 SCT025 BKN100 28/25 Q1007 NOSIG
Conditions at: VABB (BOMBAY/SANTACRUZ, IN) observed 0400 UTC 17 August 2019
Temperature: 28.0°C (82°F)
Dewpoint: 25.0°C (77°F) [RH = 84%]
Pressure (altimeter): 29.73 inches Hg (1007.0 mb)
Winds: from the SW (230 degrees) at 12 MPH (10 knots; 5.1 m/s)
Visibility: 1.86 miles (2.99 km)
Ceiling: 10000 feet AGL
Clouds: scattered clouds at 1800 feet AGL
scattered clouds at 2500 feet AGL
broken clouds at 10000 feet AGL
Weather: HZ  (haze)

METAR text: VABB 170330Z 23010KT 1500 -RA FEW012 SCT018 SCT090 29/25 Q1007 NOSIG
Conditions at: VABB (BOMBAY/SANTACRUZ, IN) observed 0330 UTC 17 August 2019
Temperature: 29.0°C (84°F)
Dewpoint: 25.0°C (77°F) [RH = 79%]
Pressure (altimeter): 29.73 inches Hg (1007.0 mb)
Winds: from the SW (230 degrees) at 12 MPH (10 knots; 5.1 m/s)
Visibility: 0.93 miles (1.50 km)
Ceiling: at least 12,000 feet AGL
Clouds: few clouds at 1200 feet AGL
scattered clouds at 1800 feet AGL
scattered clouds at 9000 feet AGL
Weather: -RA  (light rain)

Forecast for: VABB (BOMBAY/SANTACRUZ, IN)
Text: TAF VABB 181400Z 1815/1824 26012KT 3000 HZ SCT018 SCT025
Forecast period: 1500 to 2200 UTC 18 August 2019
Forecast type: FROM: standard forecast or significant change
Winds: from the W (260 degrees) at 14 MPH (12 knots; 6.2 m/s)
Visibility: 1.86 miles (2.99 km)
Ceiling: at least 12,000 feet AGL
Clouds: scattered clouds at 1800 feet AGL
scattered clouds at 2500 feet AGL
Weather: HZ  (haze)
Text: TEMPO 1815/1821 26010G20KT 2000 -SHRA SCT012 FEW025TCU BKN080
Forecast period: 1500 to 2100 UTC 18 August 2019
Forecast type: TEMPORARY: The following changes expected for less than half the time period
Winds: from the W (260 degrees) at 12 MPH (10 knots; 5.1 m/s)
gusting to 23 MPH (20 knots; 10.3 m/s)
Visibility: 1.24 miles (2.00 km)
Ceiling: 8000 feet AGL
Clouds: scattered clouds at 1200 feet AGL
few clouds at 2500 feet AGL
broken clouds at 8000 feet AGL
Weather: -SHRA  (light rain showers)
Text: BECMG 1822/1824 25007KT 2500 HZ
Forecast period: 2200 UTC 18 August 2019 to 0000 UTC 19 August 2019
Forecast type: BECOMING: Conditions expected to become as follows by 0000 UTC 19 August 2019
Winds: from the WSW (250 degrees) at 8 MPH (7 knots; 3.6 m/s)
Visibility: 1.55 miles (2.49 km)
Ceiling: at least 12,000 feet AGL
Clouds: scattered clouds at 1800 feet AGL
scattered clouds at 2500 feet AGL
Weather: HZ  (haze)